Weather at Pretoria Central Heliport

Public forecast

Using degrees Celsius for public forecast. Weather courtesy of forecast.io.

Closest aviation weather report (METAR) to Pretoria Central Heliport

Closest report is Wonderboom Airport, 0.2 nm (0.4 km) ENE. Retrieved 2021/06/15 20:00 UTC (3 minutes ago):

FAWB 152000Z AUTO 17002KT //// // ////// 09/01 Q1023

Closest aviation forecast (TAF) to Pretoria Central Heliport

Forecast is more than 12 hours old.

Closest forecast is Wonderboom Airport, 0.2 nm (0.4 km) ENE. Retrieved 2021/05/05 07:00 UTC (1 month ago):

TAF FAWB 050608Z 0507/0518 VRB03KT CAVOK TX24/0512Z TN15/0518Z